Terminal Aerodrome Forecast
Issued by NWS San Angelo, TX

Home | Current Version | Previous Version | Text Only | Print | Product List | Glossary On
Versions: 1 2 3 4 5 6 7 8 9 10 11 12 13 14 15 16 17 18 19 20 21 22 23 24 25 26 27
000
FTUS44 KSJT 241100
TAFABI
TAF
KABI 241124Z 2412/2512 25005KT P6SM BKN017
      TEMPO 2413/2416 -TSRA BKN080CB
     FM241600 16013G20KT P6SM OVC080
     FM241800 19007KT P6SM SKC=

USA.gov is the U.S. government's official web portal to all federal, state and local government web resources and services.